Time;durP1;ratioP1;P1;durP2;ratioP2;P2;SDS_P1;SDS_P2;PMS_P1;PMS_P2;Temp;Humidity;BMP_temperature;BMP_pressure;BME280_temperature;BME280_humidity;BME280_pressure;Samples;Min_cycle;Max_cycle;Signal;HPM_P1;HPM_P2
2022/03/31 00:01:17;;;;;;;15.35;9.10;;;;;;;;;;5052270;28;20143;-74
2022/03/31 00:03:43;;;;;;;12.38;8.57;;;;;;;;;;5051316;28;20132;-74
2022/03/31 00:06:08;;;;;;;14.68;9.65;;;;;;;;;;5051899;28;20041;-74
2022/03/31 00:08:33;;;;;;;18.90;10.50;;;;;;;;;;5051714;28;20132;-73
2022/03/31 00:10:59;;;;;;;16.88;10.13;;;;;;;;;;5051501;28;20063;-74
2022/03/31 00:13:29;;;;;;;15.07;10.05;;;;;;;;;;5051702;28;20020;-74
2022/03/31 00:15:56;;;;;;;13.68;9.02;;;;;;;;;;5051275;28;20025;-74
2022/03/31 00:18:22;;;;;;;14.27;8.40;;;;;;;;;;5050842;28;20501;-73
2022/03/31 00:20:47;;;;;;;13.07;8.30;;;;;;;;;;5051558;28;20033;-74
2022/03/31 00:23:13;;;;;;;12.50;8.20;;;;;;;;;;5051230;28;20138;-75
2022/03/31 00:25:39;;;;;;;12.10;8.45;;;;;;;;;;5051093;28;20025;-74
2022/03/31 00:28:05;;;;;;;16.60;10.15;;;;;;;;;;5051105;28;20474;-73
2022/03/31 00:30:31;;;;;;;15.98;9.40;;;;;;;;;;5052288;28;20068;-74
2022/03/31 00:32:57;;;;;;;16.95;9.15;;;;;;;;;;5042824;28;20053;-73
2022/03/31 00:35:23;;;;;;;15.52;9.80;;;;;;;;;;5033189;28;20475;-74
2022/03/31 00:37:48;;;;;;;16.80;9.75;;;;;;;;;;5051431;28;20295;-74
2022/03/31 00:40:16;;;;;;;17.75;9.95;;;;;;;;;;5051046;28;20032;-74
2022/03/31 00:42:43;;;;;;;17.90;10.30;;;;;;;;;;5051202;28;20017;-74
2022/03/31 00:45:20;;;;;;;17.02;10.07;;;;;;;;;;5051343;28;20025;-73
2022/03/31 00:47:46;;;;;;;16.83;10.02;;;;;;;;;;5035798;28;20029;-74
2022/03/31 00:50:13;;;;;;;21.48;11.48;;;;;;;;;;5050904;28;20039;-74
2022/03/31 00:52:39;;;;;;;18.70;10.90;;;;;;;;;;5050012;28;20035;-74
2022/03/31 00:55:06;;;;;;;17.33;11.23;;;;;;;;;;5051211;28;20104;-73
2022/03/31 00:57:31;;;;;;;19.13;11.07;;;;;;;;;;5051115;28;20095;-73
2022/03/31 00:59:57;;;;;;;17.15;10.95;;;;;;;;;;5050688;28;20052;-72
2022/03/31 01:02:23;;;;;;;17.73;11.20;;;;;;;;;;5050717;28;20029;-74
2022/03/31 01:04:49;;;;;;;19.90;11.80;;;;;;;;;;5051180;28;20028;-74
2022/03/31 01:07:14;;;;;;;16.10;11.35;;;;;;;;;;5050653;28;20048;-74
2022/03/31 01:09:40;;;;;;;20.70;12.80;;;;;;;;;;5050769;28;20025;-74
2022/03/31 01:12:05;;;;;;;17.42;11.10;;;;;;;;;;5050429;28;20055;-74
2022/03/31 01:14:31;;;;;;;19.58;10.73;;;;;;;;;;5050410;28;20040;-73
2022/03/31 01:16:56;;;;;;;16.75;10.18;;;;;;;;;;5050910;28;20025;-73
2022/03/31 01:19:22;;;;;;;19.83;10.93;;;;;;;;;;5046798;28;20528;-74
2022/03/31 01:21:47;;;;;;;18.85;11.52;;;;;;;;;;5049122;28;20047;-74
2022/03/31 01:24:14;;;;;;;18.02;11.85;;;;;;;;;;5048805;28;20049;-74
2022/03/31 01:26:39;;;;;;;19.92;11.68;;;;;;;;;;5050585;28;20025;-74
2022/03/31 01:29:05;;;;;;;19.88;11.40;;;;;;;;;;5049798;28;20062;-74
2022/03/31 01:31:31;;;;;;;17.77;11.35;;;;;;;;;;5050829;28;20055;-74
2022/03/31 01:33:57;;;;;;;22.17;13.02;;;;;;;;;;5049763;28;20033;-74
2022/03/31 01:36:23;;;;;;;19.05;11.98;;;;;;;;;;5050096;28;20263;-74
2022/03/31 01:38:49;;;;;;;22.02;13.93;;;;;;;;;;5048265;28;20229;-74
2022/03/31 01:41:14;;;;;;;23.15;13.35;;;;;;;;;;5049657;28;20025;-75
2022/03/31 01:43:39;;;;;;;20.10;11.65;;;;;;;;;;5048983;28;20021;-74
2022/03/31 01:46:07;;;;;;;21.35;11.95;;;;;;;;;;5050527;28;20032;-72
2022/03/31 01:48:33;;;;;;;21.88;12.63;;;;;;;;;;5050083;28;20071;-73
2022/03/31 01:50:58;;;;;;;20.77;12.15;;;;;;;;;;5049535;28;20033;-74
2022/03/31 01:53:23;;;;;;;25.05;12.63;;;;;;;;;;5049932;28;20039;-74
2022/03/31 01:55:49;;;;;;;28.70;13.35;;;;;;;;;;5049946;28;20116;-74
2022/03/31 01:58:14;;;;;;;20.73;12.98;;;;;;;;;;5049385;28;20025;-74
2022/03/31 02:00:39;;;;;;;22.02;11.85;;;;;;;;;;5049901;28;20028;-74
2022/03/31 02:03:05;;;;;;;16.40;11.55;;;;;;;;;;5049285;28;20047;-74
2022/03/31 02:05:30;;;;;;;19.08;12.55;;;;;;;;;;5048548;28;20090;-73
2022/03/31 02:07:56;;;;;;;19.42;11.75;;;;;;;;;;5049513;28;20035;-73
2022/03/31 02:10:21;;;;;;;20.08;11.50;;;;;;;;;;5048358;28;20063;-74
2022/03/31 02:12:49;;;;;;;20.58;11.95;;;;;;;;;;5049266;28;20045;-74
2022/03/31 02:15:15;;;;;;;19.85;11.95;;;;;;;;;;5049817;28;20029;-74
2022/03/31 02:17:40;;;;;;;20.38;12.73;;;;;;;;;;5049215;28;20029;-73
2022/03/31 02:20:09;;;;;;;19.83;11.93;;;;;;;;;;5049524;28;20047;-74
2022/03/31 02:22:34;;;;;;;19.63;12.10;;;;;;;;;;5048721;28;20024;-74
2022/03/31 02:25:00;;;;;;;19.70;11.55;;;;;;;;;;5030061;28;20535;-74
2022/03/31 02:27:25;;;;;;;25.40;15.52;;;;;;;;;;5045591;28;20040;-74
2022/03/31 02:29:51;;;;;;;21.17;12.73;;;;;;;;;;5049042;28;20033;-74
2022/03/31 02:32:16;;;;;;;18.67;11.65;;;;;;;;;;5049195;28;20479;-73
2022/03/31 02:34:41;;;;;;;18.33;10.95;;;;;;;;;;5050041;28;20029;-73
2022/03/31 02:37:07;;;;;;;16.10;11.32;;;;;;;;;;5049336;28;20173;-74
2022/03/31 02:39:33;;;;;;;18.15;11.30;;;;;;;;;;5054261;22;20042;-75
2022/03/31 02:42:00;;;;;;;15.10;10.63;;;;;;;;;;5009935;28;20022;-75
2022/03/31 02:44:25;;;;;;;18.17;10.88;;;;;;;;;;5010370;28;20053;-76
2022/03/31 02:46:53;;;;;;;21.98;11.90;;;;;;;;;;5009695;28;20487;-75
2022/03/31 02:49:19;;;;;;;19.75;12.25;;;;;;;;;;5009532;28;20029;-75
2022/03/31 02:51:44;;;;;;;17.83;11.38;;;;;;;;;;5009601;28;20025;-75
2022/03/31 02:56:54;;;;;;;18.35;11.25;;;;;;;;;;5009809;28;20188;-75
2022/03/31 02:59:20;;;;;;;19.58;11.25;;;;;;;;;;5009290;28;20112;-75
2022/03/31 03:01:45;;;;;;;18.17;11.38;;;;;;;;;;5010062;28;20131;-75
2022/03/31 03:04:11;;;;;;;19.50;11.70;;;;;;;;;;5009938;28;20022;-75
2022/03/31 03:06:37;;;;;;;15.60;10.13;;;;;;;;;;5009550;28;20025;-75
2022/03/31 03:09:03;;;;;;;17.02;10.32;;;;;;;;;;5009181;28;20359;-75
2022/03/31 03:11:29;;;;;;;16.63;10.00;;;;;;;;;;5009898;28;20032;-75
2022/03/31 03:13:54;;;;;;;16.50;9.63;;;;;;;;;;5009140;28;20037;-75
2022/03/31 03:16:21;;;;;;;15.27;8.68;;;;;;;;;;5010390;28;20033;-75
2022/03/31 03:18:46;;;;;;;17.42;10.07;;;;;;;;;;5012519;28;20104;-75
2022/03/31 03:21:12;;;;;;;15.55;9.65;;;;;;;;;;5013222;28;20105;-75
2022/03/31 03:23:38;;;;;;;15.45;9.95;;;;;;;;;;5013300;28;20467;-76
2022/03/31 03:26:04;;;;;;;18.58;11.18;;;;;;;;;;5013134;28;20539;-75
2022/03/31 03:28:30;;;;;;;19.48;11.68;;;;;;;;;;5012664;28;20122;-75
2022/03/31 03:30:57;;;;;;;19.35;11.15;;;;;;;;;;5013007;28;20091;-74
2022/03/31 03:33:23;;;;;;;18.95;11.85;;;;;;;;;;5012821;28;20034;-76
2022/03/31 03:35:49;;;;;;;21.25;11.73;;;;;;;;;;5013353;28;20100;-76
2022/03/31 03:38:15;;;;;;;22.88;13.20;;;;;;;;;;5012522;28;20033;-72
2022/03/31 03:40:41;;;;;;;21.23;13.20;;;;;;;;;;5013168;28;20030;-75
2022/03/31 03:43:07;;;;;;;21.27;12.73;;;;;;;;;;5011254;28;20506;-73
2022/03/31 03:45:32;;;;;;;22.20;12.30;;;;;;;;;;5012114;28;20053;-75
2022/03/31 03:47:58;;;;;;;25.70;12.88;;;;;;;;;;5012405;28;20028;-74
2022/03/31 03:50:25;;;;;;;21.83;13.23;;;;;;;;;;5012598;28;20033;-74
2022/03/31 03:52:51;;;;;;;22.38;13.25;;;;;;;;;;5012386;28;20029;-75
2022/03/31 03:55:16;;;;;;;23.63;13.73;;;;;;;;;;5012373;28;20099;-75
2022/03/31 03:57:41;;;;;;;23.90;12.88;;;;;;;;;;5012236;28;20030;-74
2022/03/31 04:00:09;;;;;;;20.85;11.23;;;;;;;;;;5012259;28;20460;-75
2022/03/31 04:02:35;;;;;;;20.85;12.52;;;;;;;;;;5011739;28;20033;-73
2022/03/31 04:05:00;;;;;;;20.52;12.70;;;;;;;;;;5012340;28;20079;-73
2022/03/31 04:07:25;;;;;;;22.70;12.40;;;;;;;;;;5011716;28;20029;-75
2022/03/31 04:09:50;;;;;;;23.65;12.55;;;;;;;;;;5011977;28;20026;-74
2022/03/31 04:12:16;;;;;;;20.67;11.82;;;;;;;;;;5011522;28;20022;-73
2022/03/31 04:14:41;;;;;;;25.05;13.32;;;;;;;;;;5011980;28;20022;-75
2022/03/31 04:17:06;;;;;;;20.85;12.38;;;;;;;;;;5012153;28;20103;-75
2022/03/31 04:19:32;;;;;;;25.02;13.40;;;;;;;;;;5011680;28;20026;-75
2022/03/31 04:21:57;;;;;;;24.70;13.82;;;;;;;;;;5012085;28;20446;-75
2022/03/31 04:24:22;;;;;;;21.65;12.70;;;;;;;;;;5011797;28;20036;-75
2022/03/31 04:26:48;;;;;;;22.85;13.50;;;;;;;;;;5012009;28;20569;-75
2022/03/31 04:29:13;;;;;;;22.08;12.15;;;;;;;;;;5009904;28;20116;-75
2022/03/31 04:31:43;;;;;;;22.35;12.35;;;;;;;;;;5012018;28;20053;-75
2022/03/31 04:34:10;;;;;;;22.13;12.65;;;;;;;;;;5011626;28;20096;-75
2022/03/31 04:36:35;;;;;;;23.90;12.95;;;;;;;;;;5011538;28;20026;-75
2022/03/31 04:39:01;;;;;;;22.52;13.65;;;;;;;;;;5011439;28;20026;-75
2022/03/31 04:41:26;;;;;;;22.95;12.88;;;;;;;;;;5012125;28;20435;-75
2022/03/31 04:43:52;;;;;;;21.70;12.40;;;;;;;;;;5011485;28;20029;-75
2022/03/31 04:46:18;;;;;;;21.75;12.88;;;;;;;;;;5011977;28;20037;-75
2022/03/31 04:48:44;;;;;;;21.60;12.20;;;;;;;;;;5011023;28;20032;-76
2022/03/31 04:51:09;;;;;;;23.27;13.48;;;;;;;;;;5011926;28;20097;-76
2022/03/31 04:53:35;;;;;;;22.30;12.77;;;;;;;;;;5011454;28;20120;-75
2022/03/31 04:56:00;;;;;;;24.60;13.98;;;;;;;;;;5011583;28;20041;-76
2022/03/31 04:58:25;;;;;;;25.30;13.57;;;;;;;;;;5011011;28;20072;-76
2022/03/31 05:00:50;;;;;;;23.90;13.95;;;;;;;;;;5011657;28;20026;-76
2022/03/31 05:03:16;;;;;;;23.77;12.95;;;;;;;;;;5011070;28;20018;-75
2022/03/31 05:05:41;;;;;;;24.35;13.45;;;;;;;;;;5010456;28;20539;-76
2022/03/31 05:08:06;;;;;;;22.45;13.18;;;;;;;;;;5010964;28;20040;-75
2022/03/31 05:10:31;;;;;;;25.45;13.63;;;;;;;;;;5011569;28;20606;-76
2022/03/31 05:12:57;;;;;;;23.95;14.98;;;;;;;;;;5010970;28;20034;-76
2022/03/31 05:15:22;;;;;;;23.83;12.32;;;;;;;;;;5010875;28;20160;-76
2022/03/31 05:17:47;;;;;;;23.33;12.77;;;;;;;;;;5010747;28;20026;-76
2022/03/31 05:20:13;;;;;;;27.27;18.35;;;;;;;;;;5008749;28;20034;-75
2022/03/31 05:22:40;;;;;;;27.00;15.32;;;;;;;;;;5010031;28;20109;-75
2022/03/31 05:25:07;;;;;;;27.38;14.50;;;;;;;;;;5010102;28;20042;-75
2022/03/31 05:27:33;;;;;;;28.30;14.50;;;;;;;;;;5007051;28;20022;-76
2022/03/31 05:29:58;;;;;;;26.65;15.68;;;;;;;;;;5003644;28;20034;-73
2022/03/31 05:32:24;;;;;;;24.75;14.68;;;;;;;;;;5011669;28;20021;-74
2022/03/31 05:34:50;;;;;;;29.13;15.30;;;;;;;;;;5010661;28;20101;-74
2022/03/31 05:37:16;;;;;;;25.40;14.40;;;;;;;;;;5009285;28;20022;-74
2022/03/31 05:39:41;;;;;;;26.33;14.05;;;;;;;;;;5008879;28;20025;-74
2022/03/31 05:42:07;;;;;;;27.10;14.73;;;;;;;;;;5008454;28;20044;-74
2022/03/31 05:44:32;;;;;;;27.98;15.18;;;;;;;;;;5008135;28;20017;-74
2022/03/31 05:46:58;;;;;;;29.60;14.57;;;;;;;;;;5001489;28;20500;-74
2022/03/31 05:49:23;;;;;;;25.92;14.25;;;;;;;;;;5010055;28;20092;-74
2022/03/31 05:51:49;;;;;;;25.55;15.07;;;;;;;;;;5010303;28;20060;-74
2022/03/31 05:54:14;;;;;;;28.23;15.95;;;;;;;;;;5008389;28;20029;-74
2022/03/31 05:56:39;;;;;;;27.98;14.80;;;;;;;;;;4997750;28;20487;-73
2022/03/31 05:59:05;;;;;;;27.73;14.80;;;;;;;;;;5008750;28;20025;-73
2022/03/31 06:01:31;;;;;;;23.52;14.05;;;;;;;;;;5010225;28;20034;-74
2022/03/31 06:03:56;;;;;;;25.05;14.38;;;;;;;;;;5005592;28;20148;-73
2022/03/31 06:06:23;;;;;;;22.30;13.10;;;;;;;;;;5007350;28;20030;-72
2022/03/31 06:08:48;;;;;;;26.08;14.68;;;;;;;;;;4999737;28;20032;-75
2022/03/31 06:11:14;;;;;;;27.92;15.23;;;;;;;;;;5006691;28;20304;-74
2022/03/31 06:13:39;;;;;;;29.58;15.20;;;;;;;;;;5006960;28;20561;-74
2022/03/31 06:16:04;;;;;;;30.38;15.25;;;;;;;;;;5007512;28;20551;-75
2022/03/31 06:18:30;;;;;;;26.38;15.15;;;;;;;;;;5008187;28;20030;-74
2022/03/31 06:20:56;;;;;;;27.63;14.77;;;;;;;;;;5009482;28;20097;-73
2022/03/31 06:23:23;;;;;;;28.30;15.77;;;;;;;;;;5008858;28;20045;-74
2022/03/31 06:25:50;;;;;;;28.00;16.42;;;;;;;;;;5009612;28;20026;-74
2022/03/31 06:28:15;;;;;;;28.00;15.90;;;;;;;;;;5007545;28;20044;-74
2022/03/31 06:30:41;;;;;;;26.23;15.43;;;;;;;;;;5008500;28;20463;-74
2022/03/31 06:33:06;;;;;;;30.45;16.02;;;;;;;;;;5007713;28;20136;-74
2022/03/31 06:35:32;;;;;;;32.72;17.73;;;;;;;;;;5007921;28;20182;-74
2022/03/31 06:37:57;;;;;;;33.60;17.13;;;;;;;;;;5008194;28;20575;-75
2022/03/31 06:40:22;;;;;;;31.65;17.27;;;;;;;;;;5008611;28;20344;-74
2022/03/31 06:42:48;;;;;;;29.45;16.30;;;;;;;;;;5007274;28;20057;-75
2022/03/31 06:45:16;;;;;;;28.27;16.15;;;;;;;;;;4995318;28;20037;-74
2022/03/31 06:47:45;;;;;;;25.85;14.63;;;;;;;;;;5006191;28;20065;-74
2022/03/31 06:50:12;;;;;;;26.95;16.08;;;;;;;;;;5004562;28;20025;-73
2022/03/31 06:52:37;;;;;;;28.33;16.63;;;;;;;;;;5012357;28;20037;-74
2022/03/31 06:55:03;;;;;;;27.35;16.10;;;;;;;;;;5013295;28;20502;-74
2022/03/31 06:57:29;;;;;;;30.77;15.65;;;;;;;;;;5011717;28;20121;-74
2022/03/31 06:59:54;;;;;;;29.80;16.02;;;;;;;;;;5012835;28;20624;-74
2022/03/31 07:02:19;;;;;;;31.35;16.00;;;;;;;;;;5012037;28;20036;-74
2022/03/31 07:04:45;;;;;;;29.00;15.88;;;;;;;;;;5012670;28;20495;-74
2022/03/31 07:07:10;;;;;;;31.67;17.27;;;;;;;;;;5012389;28;20040;-75
2022/03/31 07:09:35;;;;;;;27.45;17.00;;;;;;;;;;5012527;28;20017;-74
2022/03/31 07:12:01;;;;;;;27.83;16.95;;;;;;;;;;5012501;28;20021;-74
2022/03/31 07:14:26;;;;;;;33.17;18.77;;;;;;;;;;5011130;28;20038;-74
2022/03/31 07:16:52;;;;;;;28.08;16.15;;;;;;;;;;5008237;28;20049;-75
2022/03/31 07:19:17;;;;;;;27.23;15.27;;;;;;;;;;5008597;28;20112;-73
2022/03/31 07:21:43;;;;;;;36.45;17.67;;;;;;;;;;5008951;28;20091;-74
2022/03/31 07:24:09;;;;;;;31.48;16.33;;;;;;;;;;5007240;28;20064;-74
2022/03/31 07:26:34;;;;;;;30.30;15.75;;;;;;;;;;5009473;28;20041;-77
2022/03/31 07:29:00;;;;;;;28.13;15.77;;;;;;;;;;5012968;28;20099;-74
2022/03/31 07:31:29;;;;;;;28.00;15.27;;;;;;;;;;5011289;28;20521;-74
2022/03/31 07:33:56;;;;;;;26.05;15.52;;;;;;;;;;5016464;28;20360;-74
2022/03/31 07:36:21;;;;;;;27.80;15.77;;;;;;;;;;5024855;28;20033;-73
2022/03/31 07:38:46;;;;;;;27.48;15.20;;;;;;;;;;5010050;28;20547;-74
2022/03/31 07:41:13;;;;;;;26.35;15.18;;;;;;;;;;5008116;28;20036;-73
2022/03/31 07:43:39;;;;;;;25.90;15.75;;;;;;;;;;5007104;28;20052;-72
2022/03/31 07:46:05;;;;;;;21.38;13.68;;;;;;;;;;5006422;28;20476;-73
2022/03/31 07:48:31;;;;;;;22.25;13.52;;;;;;;;;;5009791;28;20030;-73
2022/03/31 07:50:58;;;;;;;23.00;14.20;;;;;;;;;;5008974;28;20029;-74
2022/03/31 07:53:24;;;;;;;24.35;14.43;;;;;;;;;;5009063;28;20025;-73
2022/03/31 07:55:50;;;;;;;26.63;15.52;;;;;;;;;;5009162;28;20056;-74
2022/03/31 07:58:15;;;;;;;23.65;15.07;;;;;;;;;;5007662;28;20488;-74
2022/03/31 08:00:41;;;;;;;25.85;14.30;;;;;;;;;;5008409;28;20072;-74
2022/03/31 08:03:06;;;;;;;23.83;14.48;;;;;;;;;;5005914;28;20026;-73
2022/03/31 08:05:37;;;;;;;24.95;15.00;;;;;;;;;;5008302;28;20591;-74
2022/03/31 08:08:03;;;;;;;23.15;13.90;;;;;;;;;;5008616;28;20022;-73
2022/03/31 08:10:28;;;;;;;20.50;13.43;;;;;;;;;;5006837;28;20029;-72
2022/03/31 08:12:54;;;;;;;21.10;13.57;;;;;;;;;;4993652;28;20026;-74
2022/03/31 08:15:22;;;;;;;20.17;12.90;;;;;;;;;;5008612;28;20120;-74
2022/03/31 08:17:49;;;;;;;22.30;13.70;;;;;;;;;;5007771;28;20036;-73
2022/03/31 08:20:16;;;;;;;25.63;14.98;;;;;;;;;;5006837;28;20037;-73
2022/03/31 08:22:42;;;;;;;29.10;19.25;;;;;;;;;;5008375;28;20018;-74
2022/03/31 08:25:09;;;;;;;27.92;18.88;;;;;;;;;;5006645;28;20487;-74
2022/03/31 08:27:35;;;;;;;24.80;14.45;;;;;;;;;;5008140;28;20088;-74
2022/03/31 08:30:01;;;;;;;25.23;14.18;;;;;;;;;;5007689;28;20022;-74
2022/03/31 08:32:26;;;;;;;22.17;14.68;;;;;;;;;;5009849;28;20101;-75
2022/03/31 08:34:52;;;;;;;22.30;13.68;;;;;;;;;;5011430;28;20124;-74
2022/03/31 08:37:18;;;;;;;22.60;14.23;;;;;;;;;;5014997;28;20017;-74
2022/03/31 08:39:43;;;;;;;24.80;15.18;;;;;;;;;;5032850;23;20048;-79
2022/03/31 08:42:09;;;;;;;24.92;14.82;;;;;;;;;;5010207;28;20023;-77
2022/03/31 08:44:36;;;;;;;22.98;14.82;;;;;;;;;;5016178;28;20014;-78
2022/03/31 08:47:02;;;;;;;22.88;14.82;;;;;;;;;;5014682;28;20061;-77
2022/03/31 08:49:29;;;;;;;26.60;14.80;;;;;;;;;;5011902;28;20072;-77
2022/03/31 08:51:55;;;;;;;24.77;14.95;;;;;;;;;;5006397;28;20403;-77
2022/03/31 08:54:20;;;;;;;25.17;15.77;;;;;;;;;;5011015;28;20037;-77
2022/03/31 08:56:45;;;;;;;24.85;15.27;;;;;;;;;;5011559;28;20584;-76
2022/03/31 08:59:11;;;;;;;24.17;14.45;;;;;;;;;;5009571;28;20116;-75
2022/03/31 09:01:39;;;;;;;23.80;14.55;;;;;;;;;;5022489;28;20061;-74
2022/03/31 09:04:06;;;;;;;24.50;14.20;;;;;;;;;;5011579;28;20026;-78
2022/03/31 09:06:31;;;;;;;23.27;14.32;;;;;;;;;;5010197;28;20546;-78
2022/03/31 09:09:04;;;;;;;23.00;14.00;;;;;;;;;;5011271;28;20106;-78
2022/03/31 09:11:34;;;;;;;22.35;13.15;;;;;;;;;;5008657;28;20113;-76
2022/03/31 09:14:04;;;;;;;22.15;13.40;;;;;;;;;;5006860;28;20044;-76
2022/03/31 09:16:38;;;;;;;21.45;13.05;;;;;;;;;;4987873;28;20484;-75
2022/03/31 09:19:15;;;;;;;21.45;12.07;;;;;;;;;;5001894;28;20475;-77
2022/03/31 09:21:54;;;;;;;26.83;13.77;;;;;;;;;;5006734;28;20034;-78
2022/03/31 09:24:21;;;;;;;21.42;12.45;;;;;;;;;;5007356;28;20056;-76
2022/03/31 09:26:48;;;;;;;22.48;13.05;;;;;;;;;;5005911;28;20041;-77
2022/03/31 09:29:15;;;;;;;22.02;12.82;;;;;;;;;;5007480;28;20050;-77
2022/03/31 09:31:41;;;;;;;21.65;12.73;;;;;;;;;;5007316;28;20061;-77
2022/03/31 09:34:08;;;;;;;24.20;12.65;;;;;;;;;;5008551;28;20542;-78
2022/03/31 09:36:36;;;;;;;21.67;12.93;;;;;;;;;;5008993;28;20089;-78
2022/03/31 09:39:08;;;;;;;20.52;12.68;;;;;;;;;;5014161;28;20430;-79
2022/03/31 09:41:37;;;;;;;24.17;13.48;;;;;;;;;;5007067;28;20052;-78
2022/03/31 09:44:08;;;;;;;23.77;14.00;;;;;;;;;;5010815;28;20147;-77
2022/03/31 09:46:36;;;;;;;21.80;12.80;;;;;;;;;;5010275;28;20387;-77
2022/03/31 09:49:14;;;;;;;24.05;13.80;;;;;;;;;;5010286;28;20408;-75
2022/03/31 09:51:44;;;;;;;25.92;13.45;;;;;;;;;;5015793;28;20057;-75
2022/03/31 09:54:10;;;;;;;24.27;13.70;;;;;;;;;;5029795;28;20044;-73
2022/03/31 09:56:38;;;;;;;25.10;14.43;;;;;;;;;;5009944;28;20041;-72
2022/03/31 09:59:05;;;;;;;22.48;12.98;;;;;;;;;;5009356;28;20033;-75
2022/03/31 10:01:31;;;;;;;22.08;13.05;;;;;;;;;;5009725;28;20040;-72
2022/03/31 10:03:56;;;;;;;23.77;14.20;;;;;;;;;;5029225;28;20510;-74
2022/03/31 10:06:24;;;;;;;29.05;16.65;;;;;;;;;;5020230;28;20037;-73
2022/03/31 10:08:50;;;;;;;30.58;16.55;;;;;;;;;;5009610;28;20097;-73
2022/03/31 10:11:22;;;;;;;28.88;15.85;;;;;;;;;;5008326;28;20045;-74
2022/03/31 10:14:04;;;;;;;36.55;18.63;;;;;;;;;;5009412;28;20499;-73
2022/03/31 10:16:52;;;;;;;48.83;22.95;;;;;;;;;;5010610;28;20034;-73
2022/03/31 10:19:28;;;;;;;28.60;16.25;;;;;;;;;;5009888;28;20057;-72
2022/03/31 10:21:58;;;;;;;28.63;16.42;;;;;;;;;;5008738;28;20053;-74
2022/03/31 10:27:33;;;;;;;24.27;14.68;;;;;;;;;;5009436;28;20041;-73
2022/03/31 10:30:15;;;;;;;23.65;14.75;;;;;;;;;;5013415;28;20033;-74
2022/03/31 10:32:59;;;;;;;26.45;14.50;;;;;;;;;;5028460;28;20072;-73
2022/03/31 10:35:41;;;;;;;23.65;13.48;;;;;;;;;;5017731;28;20037;-73
2022/03/31 10:38:14;;;;;;;19.80;12.83;;;;;;;;;;5010005;28;20033;-74
2022/03/31 10:40:42;;;;;;;;;;;;;;;;;;5009683;28;20030;-73
2022/03/31 10:43:24;;;;;;;23.45;14.00;;;;;;;;;;5008830;28;19913;-73
2022/03/31 10:45:51;;;;;;;22.75;12.70;;;;;;;;;;5009742;28;20552;-73
2022/03/31 10:48:19;;;;;;;21.13;13.38;;;;;;;;;;5008992;28;20039;-71
2022/03/31 10:50:46;;;;;;;22.67;12.60;;;;;;;;;;5014205;28;20060;-72
2022/03/31 10:53:12;;;;;;;19.48;12.07;;;;;;;;;;5029384;28;20072;-73
2022/03/31 10:55:50;;;;;;;21.77;12.48;;;;;;;;;;5017337;28;20053;-72
2022/03/31 10:58:21;;;;;;;22.50;12.05;;;;;;;;;;5009250;28;20085;-73
2022/03/31 11:00:49;;;;;;;20.00;12.05;;;;;;;;;;5008664;28;20032;-73
2022/03/31 11:03:17;;;;;;;18.98;11.35;;;;;;;;;;5009586;28;20076;-75
2022/03/31 11:05:43;;;;;;;20.08;12.63;;;;;;;;;;5009634;28;20033;-74
2022/03/31 11:08:08;;;;;;;23.88;12.98;;;;;;;;;;5008351;28;20388;-73
2022/03/31 11:10:42;;;;;;;20.25;12.35;;;;;;;;;;5008747;28;20038;-76
2022/03/31 11:13:08;;;;;;;18.92;11.52;;;;;;;;;;5009097;28;20026;-75
2022/03/31 11:15:34;;;;;;;17.50;10.77;;;;;;;;;;5008938;28;20373;-75
2022/03/31 11:18:00;;;;;;;19.35;11.85;;;;;;;;;;5008730;28;20021;-75
2022/03/31 11:20:27;;;;;;;20.15;12.13;;;;;;;;;;5008965;28;20097;-75
2022/03/31 11:22:59;;;;;;;21.75;12.80;;;;;;;;;;5008869;28;20479;-76
2022/03/31 11:25:28;;;;;;;20.87;12.17;;;;;;;;;;5009294;28;20502;-75
2022/03/31 11:27:53;;;;;;;15.82;10.65;;;;;;;;;;5008918;28;20036;-74
2022/03/31 11:30:22;;;;;;;15.95;9.98;;;;;;;;;;5009129;28;20100;-76
2022/03/31 11:32:51;;;;;;;18.67;10.70;;;;;;;;;;5008901;28;20030;-75
2022/03/31 11:35:20;;;;;;;15.25;9.85;;;;;;;;;;5007817;28;20404;-76
2022/03/31 11:37:53;;;;;;;15.90;10.73;;;;;;;;;;5010110;28;20029;-76
2022/03/31 11:40:19;;;;;;;;;;;;;;;;;;5012887;28;20117;-75
2022/03/31 11:42:46;;;;;;;16.55;9.98;;;;;;;;;;5012606;28;20008;-75
2022/03/31 11:45:25;;;;;;;18.38;10.98;;;;;;;;;;5012647;28;20447;-76
2022/03/31 11:47:58;;;;;;;16.58;10.18;;;;;;;;;;5012793;28;20088;-74
2022/03/31 11:50:26;;;;;;;17.20;10.80;;;;;;;;;;5012387;28;20396;-76
2022/03/31 11:52:52;;;;;;;17.08;10.65;;;;;;;;;;5012537;28;20097;-78
2022/03/31 11:55:20;;;;;;;15.65;10.13;;;;;;;;;;5013520;28;20022;-77
2022/03/31 11:57:59;;;;;;;14.00;9.05;;;;;;;;;;5012553;28;20087;-75
2022/03/31 12:00:27;;;;;;;16.52;9.85;;;;;;;;;;5012990;28;20177;-77
2022/03/31 12:03:07;;;;;;;16.25;9.80;;;;;;;;;;5012738;28;20022;-77
2022/03/31 12:05:33;;;;;;;14.57;8.90;;;;;;;;;;5010330;28;20068;-75
2022/03/31 12:08:00;;;;;;;17.23;10.13;;;;;;;;;;5012204;28;20045;-77
2022/03/31 12:10:26;;;;;;;16.63;9.25;;;;;;;;;;5011885;28;20410;-76
2022/03/31 12:12:54;;;;;;;17.02;10.15;;;;;;;;;;5011986;28;20116;-79
2022/03/31 12:15:30;;;;;;;18.40;10.57;;;;;;;;;;5012713;28;20041;-75
2022/03/31 12:18:08;;;;;;;17.23;10.27;;;;;;;;;;5011385;28;20100;-75
2022/03/31 12:20:36;;;;;;;17.15;10.80;;;;;;;;;;5012783;28;20033;-74
2022/03/31 12:23:23;;;;;;;17.20;10.13;;;;;;;;;;5013110;28;20136;-78
2022/03/31 12:25:49;;;;;;;14.40;9.55;;;;;;;;;;5012887;28;20021;-77
2022/03/31 12:28:17;;;;;;;18.65;10.98;;;;;;;;;;5020548;28;20095;-78
2022/03/31 12:30:48;;;;;;;15.77;9.57;;;;;;;;;;5020145;28;20033;-75
2022/03/31 12:33:24;;;;;;;17.38;9.52;;;;;;;;;;5011289;28;20057;-78
2022/03/31 12:36:03;;;;;;;13.57;8.90;;;;;;;;;;5015029;28;20059;-77
2022/03/31 12:38:45;;;;;;;15.32;8.82;;;;;;;;;;5011421;28;20089;-77
2022/03/31 12:41:25;;;;;;;15.03;8.40;;;;;;;;;;5011750;28;20092;-77
2022/03/31 12:44:15;;;;;;;15.52;9.80;;;;;;;;;;5011812;28;20251;-74
2022/03/31 12:46:44;;;;;;;14.95;8.70;;;;;;;;;;5011586;28;20029;-76
2022/03/31 12:49:11;;;;;;;14.60;8.73;;;;;;;;;;5010230;28;20025;-76
2022/03/31 12:51:58;;;;;;;15.57;9.25;;;;;;;;;;5011605;28;20076;-73
2022/03/31 12:54:29;;;;;;;15.73;9.32;;;;;;;;;;5010895;28;20361;-73
2022/03/31 12:57:00;;;;;;;14.88;9.30;;;;;;;;;;5011677;28;20273;-74
2022/03/31 12:59:30;;;;;;;12.85;8.70;;;;;;;;;;5011099;28;20034;-76
2022/03/31 13:02:07;;;;;;;13.68;8.55;;;;;;;;;;5011041;28;20095;-72
2022/03/31 13:04:35;;;;;;;15.60;9.88;;;;;;;;;;5011041;28;20106;-74
2022/03/31 13:07:04;;;;;;;15.40;9.70;;;;;;;;;;5011096;28;20026;-73
2022/03/31 13:09:29;;;;;;;14.93;8.80;;;;;;;;;;5010845;28;20026;-72
2022/03/31 13:11:56;;;;;;;17.55;10.45;;;;;;;;;;5010698;28;20390;-72
2022/03/31 13:14:23;;;;;;;17.00;10.43;;;;;;;;;;5009776;28;20030;-72
2022/03/31 13:16:49;;;;;;;16.35;10.13;;;;;;;;;;5010799;28;20026;-73
2022/03/31 13:19:16;;;;;;;15.73;9.25;;;;;;;;;;5009876;28;20026;-74
2022/03/31 13:21:41;;;;;;;17.48;10.35;;;;;;;;;;5009945;28;20025;-74
2022/03/31 13:24:07;;;;;;;14.40;9.20;;;;;;;;;;5010017;28;20022;-70
2022/03/31 13:26:33;;;;;;;14.50;9.10;;;;;;;;;;5010245;28;20041;-73
2022/03/31 13:29:05;;;;;;;20.45;10.75;;;;;;;;;;5009864;28;20387;-71
2022/03/31 13:31:32;;;;;;;16.88;9.52;;;;;;;;;;5010157;28;20018;-73
2022/03/31 13:33:58;;;;;;;16.02;10.10;;;;;;;;;;5010064;28;20034;-73
2022/03/31 13:36:24;;;;;;;16.02;9.65;;;;;;;;;;5009964;28;20080;-73
2022/03/31 13:38:49;;;;;;;16.30;10.10;;;;;;;;;;5010217;28;20030;-75
2022/03/31 13:41:14;;;;;;;16.40;10.10;;;;;;;;;;5009955;28;20041;-73
2022/03/31 13:43:40;;;;;;;13.65;9.68;;;;;;;;;;5010508;28;20029;-71
2022/03/31 13:46:06;;;;;;;15.20;9.90;;;;;;;;;;5010120;28;20034;-71
2022/03/31 13:48:31;;;;;;;16.77;10.18;;;;;;;;;;5010359;28;20311;-71
2022/03/31 13:50:57;;;;;;;15.75;10.35;;;;;;;;;;5009599;28;20029;-72
2022/03/31 13:56:06;;;;;;;15.93;8.95;;;;;;;;;;5010415;28;20419;-73
2022/03/31 14:01:18;;;;;;;15.13;9.02;;;;;;;;;;5010015;28;20250;-72
2022/03/31 14:03:44;;;;;;;15.50;9.60;;;;;;;;;;5008995;28;20029;-73
2022/03/31 14:06:13;;;;;;;13.60;9.05;;;;;;;;;;5010167;28;20033;-72
2022/03/31 14:08:38;;;;;;;16.88;8.73;;;;;;;;;;5010041;28;20117;-72
2022/03/31 14:11:05;;;;;;;16.55;9.52;;;;;;;;;;5010989;28;20430;-71
2022/03/31 14:13:32;;;;;;;14.02;9.20;;;;;;;;;;5012266;28;20029;-71
2022/03/31 14:16:02;;;;;;;17.75;10.65;;;;;;;;;;5013518;28;20030;-72
2022/03/31 14:18:29;;;;;;;15.77;9.35;;;;;;;;;;5013829;28;20558;-72
2022/03/31 14:20:54;;;;;;;15.18;9.32;;;;;;;;;;4992958;28;20029;-72
2022/03/31 14:23:20;;;;;;;14.05;9.07;;;;;;;;;;4992441;28;20258;-72
2022/03/31 14:25:45;;;;;;;13.75;8.82;;;;;;;;;;4991227;28;20030;-71
2022/03/31 14:28:11;;;;;;;12.35;7.97;;;;;;;;;;5001852;28;20057;-73
2022/03/31 14:30:36;;;;;;;15.38;8.75;;;;;;;;;;5010108;28;20096;-72
2022/03/31 14:33:02;;;;;;;13.90;8.02;;;;;;;;;;5010563;28;20542;-72